sensor_id;sensor_type;location;lat;lon;timestamp;P1;durP1;ratioP1;P2;durP2;ratioP2
13698;SDS011;6921;53.642;9.956;2023-06-26T00:00:13;14.02;;;12.73;;
13698;SDS011;6921;53.642;9.956;2023-06-26T00:02:18;14.27;;;13.07;;
13698;SDS011;6921;53.642;9.956;2023-06-26T00:04:22;14.88;;;13.50;;
13698;SDS011;6921;53.642;9.956;2023-06-26T00:06:28;14.68;;;13.40;;
13698;SDS011;6921;53.642;9.956;2023-06-26T00:08:33;14.85;;;13.48;;
13698;SDS011;6921;53.642;9.956;2023-06-26T00:10:39;14.82;;;13.48;;
13698;SDS011;6921;53.642;9.956;2023-06-26T00:12:42;15.55;;;14.05;;
13698;SDS011;6921;53.642;9.956;2023-06-26T00:14:50;14.82;;;13.55;;
13698;SDS011;6921;53.642;9.956;2023-06-26T00:16:54;14.30;;;13.10;;
13698;SDS011;6921;53.642;9.956;2023-06-26T00:19:03;15.10;;;13.63;;
13698;SDS011;6921;53.642;9.956;2023-06-26T00:21:07;14.73;;;13.43;;
13698;SDS011;6921;53.642;9.956;2023-06-26T00:23:15;15.13;;;13.80;;
13698;SDS011;6921;53.642;9.956;2023-06-26T00:25:22;16.13;;;14.68;;
13698;SDS011;6921;53.642;9.956;2023-06-26T00:27:26;14.68;;;13.43;;
13698;SDS011;6921;53.642;9.956;2023-06-26T00:29:30;14.40;;;13.20;;
13698;SDS011;6921;53.642;9.956;2023-06-26T00:31:34;14.70;;;13.50;;
13698;SDS011;6921;53.642;9.956;2023-06-26T00:33:38;14.60;;;13.30;;
13698;SDS011;6921;53.642;9.956;2023-06-26T00:35:43;13.90;;;12.80;;
13698;SDS011;6921;53.642;9.956;2023-06-26T00:37:49;14.55;;;13.25;;
13698;SDS011;6921;53.642;9.956;2023-06-26T00:39:54;14.95;;;13.68;;
13698;SDS011;6921;53.642;9.956;2023-06-26T00:41:58;15.25;;;13.95;;
13698;SDS011;6921;53.642;9.956;2023-06-26T00:44:03;15.18;;;13.98;;
13698;SDS011;6921;53.642;9.956;2023-06-26T00:46:08;15.40;;;14.00;;
13698;SDS011;6921;53.642;9.956;2023-06-26T00:48:32;14.95;;;13.68;;
13698;SDS011;6921;53.642;9.956;2023-06-26T00:50:36;17.05;;;15.38;;
13698;SDS011;6921;53.642;9.956;2023-06-26T00:52:41;16.25;;;14.68;;
13698;SDS011;6921;53.642;9.956;2023-06-26T00:54:45;15.30;;;13.90;;
13698;SDS011;6921;53.642;9.956;2023-06-26T00:56:51;15.43;;;14.13;;
13698;SDS011;6921;53.642;9.956;2023-06-26T00:58:57;15.43;;;14.13;;
13698;SDS011;6921;53.642;9.956;2023-06-26T01:03:33;15.95;;;14.52;;
13698;SDS011;6921;53.642;9.956;2023-06-26T01:05:39;15.23;;;13.85;;
13698;SDS011;6921;53.642;9.956;2023-06-26T01:07:43;14.65;;;13.50;;
13698;SDS011;6921;53.642;9.956;2023-06-26T01:10:17;17.05;;;15.45;;
13698;SDS011;6921;53.642;9.956;2023-06-26T01:12:24;16.38;;;15.00;;
13698;SDS011;6921;53.642;9.956;2023-06-26T01:15:07;16.08;;;14.70;;
13698;SDS011;6921;53.642;9.956;2023-06-26T01:20:05;16.08;;;14.65;;
13698;SDS011;6921;53.642;9.956;2023-06-26T01:22:11;15.35;;;14.07;;
13698;SDS011;6921;53.642;9.956;2023-06-26T01:24:18;15.43;;;14.15;;
13698;SDS011;6921;53.642;9.956;2023-06-26T01:26:30;16.67;;;15.27;;
13698;SDS011;6921;53.642;9.956;2023-06-26T01:28:38;16.00;;;14.60;;
13698;SDS011;6921;53.642;9.956;2023-06-26T01:30:52;16.50;;;15.07;;
13698;SDS011;6921;53.642;9.956;2023-06-26T01:32:58;16.67;;;15.35;;
13698;SDS011;6921;53.642;9.956;2023-06-26T01:35:04;16.42;;;14.82;;
13698;SDS011;6921;53.642;9.956;2023-06-26T01:37:36;14.93;;;13.60;;
13698;SDS011;6921;53.642;9.956;2023-06-26T01:39:41;16.45;;;15.05;;
13698;SDS011;6921;53.642;9.956;2023-06-26T01:41:49;16.58;;;15.07;;
13698;SDS011;6921;53.642;9.956;2023-06-26T01:47:35;16.25;;;14.75;;
13698;SDS011;6921;53.642;9.956;2023-06-26T01:49:43;15.95;;;14.75;;
13698;SDS011;6921;53.642;9.956;2023-06-26T01:51:51;15.43;;;14.13;;
13698;SDS011;6921;53.642;9.956;2023-06-26T01:54:00;16.77;;;15.38;;
13698;SDS011;6921;53.642;9.956;2023-06-26T01:56:06;15.45;;;14.15;;
13698;SDS011;6921;53.642;9.956;2023-06-26T01:58:15;16.17;;;14.77;;
13698;SDS011;6921;53.642;9.956;2023-06-26T02:00:22;16.60;;;15.10;;
13698;SDS011;6921;53.642;9.956;2023-06-26T02:02:28;16.58;;;15.18;;
13698;SDS011;6921;53.642;9.956;2023-06-26T02:04:32;16.13;;;14.73;;
13698;SDS011;6921;53.642;9.956;2023-06-26T02:06:36;17.13;;;15.57;;
13698;SDS011;6921;53.642;9.956;2023-06-26T02:08:40;16.15;;;14.85;;
13698;SDS011;6921;53.642;9.956;2023-06-26T02:10:44;16.63;;;15.23;;
13698;SDS011;6921;53.642;9.956;2023-06-26T02:12:48;16.10;;;14.70;;
13698;SDS011;6921;53.642;9.956;2023-06-26T02:14:53;16.05;;;14.65;;
13698;SDS011;6921;53.642;9.956;2023-06-26T02:16:57;16.90;;;15.30;;
13698;SDS011;6921;53.642;9.956;2023-06-26T02:19:02;15.75;;;14.43;;
13698;SDS011;6921;53.642;9.956;2023-06-26T02:21:08;16.45;;;15.05;;
13698;SDS011;6921;53.642;9.956;2023-06-26T02:23:12;16.58;;;15.13;;
13698;SDS011;6921;53.642;9.956;2023-06-26T02:25:17;16.55;;;15.05;;
13698;SDS011;6921;53.642;9.956;2023-06-26T02:27:21;16.70;;;15.30;;
13698;SDS011;6921;53.642;9.956;2023-06-26T02:29:25;16.40;;;15.10;;
13698;SDS011;6921;53.642;9.956;2023-06-26T02:31:30;16.90;;;15.30;;
13698;SDS011;6921;53.642;9.956;2023-06-26T02:33:34;16.30;;;14.90;;
13698;SDS011;6921;53.642;9.956;2023-06-26T02:35:37;15.77;;;14.48;;
13698;SDS011;6921;53.642;9.956;2023-06-26T02:37:42;16.95;;;15.25;;
13698;SDS011;6921;53.642;9.956;2023-06-26T02:39:46;17.10;;;15.60;;
13698;SDS011;6921;53.642;9.956;2023-06-26T02:41:50;16.20;;;14.70;;
13698;SDS011;6921;53.642;9.956;2023-06-26T02:43:53;15.82;;;14.48;;
13698;SDS011;6921;53.642;9.956;2023-06-26T02:45:58;15.93;;;14.52;;
13698;SDS011;6921;53.642;9.956;2023-06-26T02:48:06;15.90;;;14.48;;
13698;SDS011;6921;53.642;9.956;2023-06-26T02:50:11;17.05;;;15.55;;
13698;SDS011;6921;53.642;9.956;2023-06-26T02:52:14;16.08;;;14.63;;
13698;SDS011;6921;53.642;9.956;2023-06-26T02:54:18;15.15;;;13.85;;
13698;SDS011;6921;53.642;9.956;2023-06-26T02:56:24;15.93;;;14.35;;
13698;SDS011;6921;53.642;9.956;2023-06-26T03:01:30;15.55;;;14.23;;
13698;SDS011;6921;53.642;9.956;2023-06-26T03:03:38;15.68;;;14.38;;
13698;SDS011;6921;53.642;9.956;2023-06-26T03:05:48;15.55;;;14.20;;
13698;SDS011;6921;53.642;9.956;2023-06-26T03:07:54;15.00;;;13.75;;
13698;SDS011;6921;53.642;9.956;2023-06-26T03:09:58;14.98;;;13.77;;
13698;SDS011;6921;53.642;9.956;2023-06-26T03:12:04;14.25;;;13.00;;
13698;SDS011;6921;53.642;9.956;2023-06-26T03:14:08;14.98;;;13.77;;
13698;SDS011;6921;53.642;9.956;2023-06-26T03:16:11;15.75;;;14.30;;
13698;SDS011;6921;53.642;9.956;2023-06-26T03:18:15;15.57;;;14.18;;
13698;SDS011;6921;53.642;9.956;2023-06-26T03:20:20;16.00;;;14.65;;
13698;SDS011;6921;53.642;9.956;2023-06-26T03:22:28;14.25;;;13.13;;
13698;SDS011;6921;53.642;9.956;2023-06-26T03:24:32;14.85;;;13.50;;
13698;SDS011;6921;53.642;9.956;2023-06-26T03:26:36;14.73;;;13.43;;
13698;SDS011;6921;53.642;9.956;2023-06-26T03:28:42;14.27;;;12.98;;
13698;SDS011;6921;53.642;9.956;2023-06-26T03:30:46;13.77;;;12.57;;
13698;SDS011;6921;53.642;9.956;2023-06-26T03:32:50;14.80;;;13.60;;
13698;SDS011;6921;53.642;9.956;2023-06-26T03:37:26;14.10;;;12.90;;
13698;SDS011;6921;53.642;9.956;2023-06-26T03:49:55;14.02;;;12.80;;
13698;SDS011;6921;53.642;9.956;2023-06-26T03:52:00;14.40;;;13.10;;
13698;SDS011;6921;53.642;9.956;2023-06-26T03:54:04;13.13;;;12.00;;
13698;SDS011;6921;53.642;9.956;2023-06-26T03:56:08;13.32;;;12.23;;
13698;SDS011;6921;53.642;9.956;2023-06-26T04:01:20;14.18;;;12.77;;
13698;SDS011;6921;53.642;9.956;2023-06-26T04:03:24;12.90;;;11.68;;
13698;SDS011;6921;53.642;9.956;2023-06-26T04:05:28;13.13;;;12.00;;
13698;SDS011;6921;53.642;9.956;2023-06-26T04:07:33;12.95;;;11.85;;
13698;SDS011;6921;53.642;9.956;2023-06-26T04:09:38;12.27;;;11.18;;
13698;SDS011;6921;53.642;9.956;2023-06-26T04:11:42;12.60;;;11.50;;
13698;SDS011;6921;53.642;9.956;2023-06-26T04:16:20;12.95;;;11.85;;
13698;SDS011;6921;53.642;9.956;2023-06-26T04:18:26;12.18;;;11.05;;
13698;SDS011;6921;53.642;9.956;2023-06-26T04:20:30;13.50;;;12.20;;
13698;SDS011;6921;53.642;9.956;2023-06-26T04:22:41;12.23;;;11.20;;
13698;SDS011;6921;53.642;9.956;2023-06-26T04:25:04;14.27;;;11.63;;
13698;SDS011;6921;53.642;9.956;2023-06-26T04:27:09;12.68;;;11.57;;
13698;SDS011;6921;53.642;9.956;2023-06-26T04:29:12;11.52;;;10.38;;
13698;SDS011;6921;53.642;9.956;2023-06-26T04:31:34;11.70;;;10.68;;
13698;SDS011;6921;53.642;9.956;2023-06-26T04:33:38;12.35;;;11.30;;
13698;SDS011;6921;53.642;9.956;2023-06-26T04:38:11;11.65;;;10.65;;
13698;SDS011;6921;53.642;9.956;2023-06-26T04:43:48;11.65;;;10.45;;
13698;SDS011;6921;53.642;9.956;2023-06-26T04:48:54;11.65;;;10.55;;
13698;SDS011;6921;53.642;9.956;2023-06-26T04:50:59;11.68;;;10.65;;
13698;SDS011;6921;53.642;9.956;2023-06-26T04:53:03;11.65;;;10.45;;
13698;SDS011;6921;53.642;9.956;2023-06-26T04:55:09;12.40;;;11.20;;
13698;SDS011;6921;53.642;9.956;2023-06-26T04:57:13;11.38;;;10.23;;
13698;SDS011;6921;53.642;9.956;2023-06-26T04:59:19;11.25;;;10.18;;
13698;SDS011;6921;53.642;9.956;2023-06-26T05:01:23;12.35;;;11.23;;
13698;SDS011;6921;53.642;9.956;2023-06-26T05:03:31;12.18;;;10.82;;
13698;SDS011;6921;53.642;9.956;2023-06-26T05:05:35;12.02;;;11.02;;
13698;SDS011;6921;53.642;9.956;2023-06-26T05:07:46;10.93;;;9.93;;
13698;SDS011;6921;53.642;9.956;2023-06-26T05:09:50;11.18;;;10.18;;
13698;SDS011;6921;53.642;9.956;2023-06-26T05:11:55;11.60;;;10.30;;
13698;SDS011;6921;53.642;9.956;2023-06-26T05:13:59;11.55;;;10.52;;
13698;SDS011;6921;53.642;9.956;2023-06-26T05:16:03;11.57;;;10.50;;
13698;SDS011;6921;53.642;9.956;2023-06-26T05:18:06;10.90;;;10.00;;
13698;SDS011;6921;53.642;9.956;2023-06-26T05:20:12;11.80;;;10.70;;
13698;SDS011;6921;53.642;9.956;2023-06-26T05:22:16;11.38;;;10.38;;
13698;SDS011;6921;53.642;9.956;2023-06-26T05:24:21;11.35;;;10.32;;
13698;SDS011;6921;53.642;9.956;2023-06-26T05:26:26;10.88;;;9.90;;
13698;SDS011;6921;53.642;9.956;2023-06-26T05:28:32;10.82;;;9.82;;
13698;SDS011;6921;53.642;9.956;2023-06-26T05:30:39;10.77;;;9.77;;
13698;SDS011;6921;53.642;9.956;2023-06-26T05:32:43;10.98;;;10.00;;
13698;SDS011;6921;53.642;9.956;2023-06-26T05:35:17;11.32;;;10.20;;
13698;SDS011;6921;53.642;9.956;2023-06-26T05:37:21;10.63;;;9.63;;
13698;SDS011;6921;53.642;9.956;2023-06-26T05:39:30;10.55;;;9.65;;
13698;SDS011;6921;53.642;9.956;2023-06-26T05:41:34;9.90;;;9.10;;
13698;SDS011;6921;53.642;9.956;2023-06-26T05:43:39;10.70;;;9.60;;
13698;SDS011;6921;53.642;9.956;2023-06-26T05:45:43;10.63;;;9.57;;
13698;SDS011;6921;53.642;9.956;2023-06-26T05:47:47;11.40;;;10.15;;
13698;SDS011;6921;53.642;9.956;2023-06-26T05:49:54;12.93;;;9.13;;
13698;SDS011;6921;53.642;9.956;2023-06-26T05:51:58;9.98;;;9.05;;
13698;SDS011;6921;53.642;9.956;2023-06-26T05:54:02;9.95;;;9.05;;
13698;SDS011;6921;53.642;9.956;2023-06-26T05:56:07;10.52;;;9.52;;
13698;SDS011;6921;53.642;9.956;2023-06-26T05:58:13;10.27;;;9.30;;
13698;SDS011;6921;53.642;9.956;2023-06-26T06:00:21;10.02;;;9.02;;
13698;SDS011;6921;53.642;9.956;2023-06-26T06:02:29;11.13;;;10.02;;
13698;SDS011;6921;53.642;9.956;2023-06-26T06:04:33;10.45;;;9.43;;
13698;SDS011;6921;53.642;9.956;2023-06-26T06:06:38;10.40;;;9.40;;
13698;SDS011;6921;53.642;9.956;2023-06-26T06:08:42;10.45;;;9.40;;
13698;SDS011;6921;53.642;9.956;2023-06-26T06:10:48;10.25;;;9.35;;
13698;SDS011;6921;53.642;9.956;2023-06-26T06:12:51;10.05;;;9.18;;
13698;SDS011;6921;53.642;9.956;2023-06-26T06:14:56;10.13;;;9.15;;
13698;SDS011;6921;53.642;9.956;2023-06-26T06:17:03;9.65;;;8.85;;
13698;SDS011;6921;53.642;9.956;2023-06-26T06:19:07;9.25;;;8.45;;
13698;SDS011;6921;53.642;9.956;2023-06-26T06:21:13;9.90;;;9.00;;
13698;SDS011;6921;53.642;9.956;2023-06-26T06:23:16;10.13;;;9.02;;
13698;SDS011;6921;53.642;9.956;2023-06-26T06:25:20;10.98;;;8.85;;
13698;SDS011;6921;53.642;9.956;2023-06-26T06:27:24;9.82;;;9.02;;
13698;SDS011;6921;53.642;9.956;2023-06-26T06:29:28;10.32;;;9.18;;
13698;SDS011;6921;53.642;9.956;2023-06-26T06:31:31;9.07;;;8.30;;
13698;SDS011;6921;53.642;9.956;2023-06-26T06:33:37;9.23;;;8.32;;
13698;SDS011;6921;53.642;9.956;2023-06-26T06:35:40;8.93;;;8.15;;
13698;SDS011;6921;53.642;9.956;2023-06-26T06:37:44;10.35;;;8.20;;
13698;SDS011;6921;53.642;9.956;2023-06-26T06:39:50;9.52;;;8.55;;
13698;SDS011;6921;53.642;9.956;2023-06-26T06:41:54;10.07;;;8.85;;
13698;SDS011;6921;53.642;9.956;2023-06-26T06:43:58;9.43;;;8.63;;
13698;SDS011;6921;53.642;9.956;2023-06-26T06:46:02;9.10;;;8.23;;
13698;SDS011;6921;53.642;9.956;2023-06-26T06:48:06;9.77;;;8.80;;
13698;SDS011;6921;53.642;9.956;2023-06-26T06:50:11;9.20;;;8.13;;
13698;SDS011;6921;53.642;9.956;2023-06-26T06:52:17;12.88;;;8.60;;
13698;SDS011;6921;53.642;9.956;2023-06-26T06:54:22;10.23;;;8.85;;
13698;SDS011;6921;53.642;9.956;2023-06-26T06:56:25;8.93;;;8.15;;
13698;SDS011;6921;53.642;9.956;2023-06-26T06:58:30;9.18;;;8.15;;
13698;SDS011;6921;53.642;9.956;2023-06-26T07:00:35;9.88;;;8.88;;
13698;SDS011;6921;53.642;9.956;2023-06-26T07:02:39;12.00;;;8.55;;
13698;SDS011;6921;53.642;9.956;2023-06-26T07:04:43;9.25;;;8.45;;
13698;SDS011;6921;53.642;9.956;2023-06-26T07:06:49;9.57;;;8.75;;
13698;SDS011;6921;53.642;9.956;2023-06-26T07:08:53;9.23;;;8.40;;
13698;SDS011;6921;53.642;9.956;2023-06-26T07:10:56;8.82;;;7.93;;
13698;SDS011;6921;53.642;9.956;2023-06-26T07:13:00;9.88;;;8.85;;
13698;SDS011;6921;53.642;9.956;2023-06-26T07:15:04;10.75;;;8.43;;
13698;SDS011;6921;53.642;9.956;2023-06-26T07:17:08;12.40;;;8.45;;
13698;SDS011;6921;53.642;9.956;2023-06-26T07:19:12;9.82;;;8.82;;
13698;SDS011;6921;53.642;9.956;2023-06-26T07:21:16;8.93;;;7.85;;
13698;SDS011;6921;53.642;9.956;2023-06-26T07:23:21;9.35;;;8.45;;
13698;SDS011;6921;53.642;9.956;2023-06-26T07:25:25;9.40;;;8.60;;
13698;SDS011;6921;53.642;9.956;2023-06-26T07:27:29;9.23;;;8.35;;
13698;SDS011;6921;53.642;9.956;2023-06-26T07:29:35;9.18;;;8.25;;
13698;SDS011;6921;53.642;9.956;2023-06-26T07:31:39;9.45;;;8.55;;
13698;SDS011;6921;53.642;9.956;2023-06-26T07:33:43;8.55;;;7.75;;
13698;SDS011;6921;53.642;9.956;2023-06-26T07:35:47;9.60;;;8.68;;
13698;SDS011;6921;53.642;9.956;2023-06-26T07:37:51;9.63;;;8.70;;
13698;SDS011;6921;53.642;9.956;2023-06-26T07:39:56;10.88;;;8.30;;
13698;SDS011;6921;53.642;9.956;2023-06-26T07:42:00;11.50;;;9.00;;
13698;SDS011;6921;53.642;9.956;2023-06-26T07:44:03;9.32;;;8.43;;
13698;SDS011;6921;53.642;9.956;2023-06-26T07:46:08;9.57;;;8.63;;
13698;SDS011;6921;53.642;9.956;2023-06-26T07:48:11;8.50;;;7.75;;
13698;SDS011;6921;53.642;9.956;2023-06-26T07:50:15;8.93;;;8.23;;
13698;SDS011;6921;53.642;9.956;2023-06-26T07:52:23;9.00;;;8.10;;
13698;SDS011;6921;53.642;9.956;2023-06-26T07:54:26;9.60;;;8.70;;
13698;SDS011;6921;53.642;9.956;2023-06-26T07:56:34;8.93;;;8.05;;
13698;SDS011;6921;53.642;9.956;2023-06-26T07:58:54;8.88;;;8.18;;
13698;SDS011;6921;53.642;9.956;2023-06-26T08:01:00;9.25;;;8.23;;
13698;SDS011;6921;53.642;9.956;2023-06-26T08:03:03;9.02;;;8.23;;
13698;SDS011;6921;53.642;9.956;2023-06-26T08:05:12;9.50;;;8.38;;
13698;SDS011;6921;53.642;9.956;2023-06-26T08:07:21;9.50;;;8.60;;
13698;SDS011;6921;53.642;9.956;2023-06-26T08:09:26;9.20;;;8.40;;
13698;SDS011;6921;53.642;9.956;2023-06-26T08:11:30;8.98;;;8.20;;
13698;SDS011;6921;53.642;9.956;2023-06-26T08:13:35;9.05;;;8.15;;
13698;SDS011;6921;53.642;9.956;2023-06-26T08:15:38;8.98;;;8.20;;
13698;SDS011;6921;53.642;9.956;2023-06-26T08:17:42;9.65;;;8.68;;
13698;SDS011;6921;53.642;9.956;2023-06-26T08:19:46;9.38;;;8.48;;
13698;SDS011;6921;53.642;9.956;2023-06-26T08:21:50;8.38;;;7.68;;
13698;SDS011;6921;53.642;9.956;2023-06-26T08:23:53;8.32;;;7.53;;
13698;SDS011;6921;53.642;9.956;2023-06-26T08:25:57;8.70;;;7.53;;
13698;SDS011;6921;53.642;9.956;2023-06-26T08:28:02;9.15;;;7.90;;
13698;SDS011;6921;53.642;9.956;2023-06-26T08:30:08;8.60;;;7.88;;
13698;SDS011;6921;53.642;9.956;2023-06-26T08:32:11;9.00;;;8.20;;
13698;SDS011;6921;53.642;9.956;2023-06-26T08:34:15;9.13;;;8.23;;
13698;SDS011;6921;53.642;9.956;2023-06-26T08:36:18;9.07;;;8.27;;
13698;SDS011;6921;53.642;9.956;2023-06-26T08:38:22;8.98;;;8.18;;
13698;SDS011;6921;53.642;9.956;2023-06-26T08:40:25;9.68;;;8.35;;
13698;SDS011;6921;53.642;9.956;2023-06-26T08:42:29;8.50;;;7.80;;
13698;SDS011;6921;53.642;9.956;2023-06-26T08:44:32;8.32;;;7.63;;
13698;SDS011;6921;53.642;9.956;2023-06-26T08:46:40;8.65;;;7.85;;
13698;SDS011;6921;53.642;9.956;2023-06-26T08:48:45;8.55;;;7.72;;
13698;SDS011;6921;53.642;9.956;2023-06-26T08:50:52;9.50;;;7.55;;
13698;SDS011;6921;53.642;9.956;2023-06-26T08:52:58;9.07;;;8.25;;
13698;SDS011;6921;53.642;9.956;2023-06-26T08:55:09;8.45;;;7.50;;
13698;SDS011;6921;53.642;9.956;2023-06-26T08:57:13;10.65;;;8.07;;
13698;SDS011;6921;53.642;9.956;2023-06-26T08:59:17;9.05;;;8.18;;
13698;SDS011;6921;53.642;9.956;2023-06-26T09:01:21;9.57;;;8.57;;
13698;SDS011;6921;53.642;9.956;2023-06-26T09:03:26;9.68;;;8.68;;
13698;SDS011;6921;53.642;9.956;2023-06-26T09:05:31;9.85;;;9.05;;
13698;SDS011;6921;53.642;9.956;2023-06-26T09:07:35;9.77;;;8.75;;
13698;SDS011;6921;53.642;9.956;2023-06-26T09:09:39;9.93;;;9.13;;
13698;SDS011;6921;53.642;9.956;2023-06-26T09:11:42;10.95;;;10.00;;
13698;SDS011;6921;53.642;9.956;2023-06-26T09:13:46;11.13;;;10.02;;
13698;SDS011;6921;53.642;9.956;2023-06-26T09:15:50;11.02;;;9.93;;
13698;SDS011;6921;53.642;9.956;2023-06-26T09:17:56;12.60;;;11.40;;
13698;SDS011;6921;53.642;9.956;2023-06-26T09:20:01;12.93;;;11.57;;
13698;SDS011;6921;53.642;9.956;2023-06-26T09:22:10;13.50;;;12.10;;
13698;SDS011;6921;53.642;9.956;2023-06-26T09:24:14;12.90;;;11.68;;
13698;SDS011;6921;53.642;9.956;2023-06-26T09:26:18;13.07;;;11.80;;
13698;SDS011;6921;53.642;9.956;2023-06-26T09:28:21;12.55;;;11.30;;
13698;SDS011;6921;53.642;9.956;2023-06-26T09:30:25;12.63;;;11.32;;
13698;SDS011;6921;53.642;9.956;2023-06-26T09:32:28;12.57;;;11.35;;
13698;SDS011;6921;53.642;9.956;2023-06-26T09:34:32;13.48;;;11.98;;
13698;SDS011;6921;53.642;9.956;2023-06-26T09:36:38;11.85;;;10.85;;
13698;SDS011;6921;53.642;9.956;2023-06-26T09:38:43;12.30;;;11.07;;
13698;SDS011;6921;53.642;9.956;2023-06-26T09:40:47;12.35;;;11.05;;
13698;SDS011;6921;53.642;9.956;2023-06-26T09:42:50;15.55;;;12.77;;
13698;SDS011;6921;53.642;9.956;2023-06-26T09:44:54;13.13;;;11.70;;
13698;SDS011;6921;53.642;9.956;2023-06-26T09:46:57;13.85;;;12.45;;
13698;SDS011;6921;53.642;9.956;2023-06-26T09:49:01;14.68;;;12.02;;
13698;SDS011;6921;53.642;9.956;2023-06-26T09:51:06;14.57;;;13.07;;
13698;SDS011;6921;53.642;9.956;2023-06-26T09:53:15;12.20;;;10.95;;
13698;SDS011;6921;53.642;9.956;2023-06-26T09:55:20;16.45;;;11.90;;
13698;SDS011;6921;53.642;9.956;2023-06-26T09:57:24;13.27;;;11.93;;
13698;SDS011;6921;53.642;9.956;2023-06-26T09:59:27;13.05;;;11.80;;
13698;SDS011;6921;53.642;9.956;2023-06-26T10:01:31;13.57;;;12.20;;
13698;SDS011;6921;53.642;9.956;2023-06-26T10:03:35;13.43;;;12.20;;
13698;SDS011;6921;53.642;9.956;2023-06-26T10:05:40;16.00;;;12.38;;
13698;SDS011;6921;53.642;9.956;2023-06-26T10:07:44;12.25;;;11.15;;
13698;SDS011;6921;53.642;9.956;2023-06-26T10:09:50;14.57;;;12.45;;
13698;SDS011;6921;53.642;9.956;2023-06-26T10:11:55;15.65;;;14.05;;
13698;SDS011;6921;53.642;9.956;2023-06-26T10:13:59;14.70;;;13.25;;
13698;SDS011;6921;53.642;9.956;2023-06-26T10:16:19;13.65;;;12.35;;
13698;SDS011;6921;53.642;9.956;2023-06-26T10:18:26;15.13;;;13.57;;
13698;SDS011;6921;53.642;9.956;2023-06-26T10:20:33;16.67;;;14.40;;
13698;SDS011;6921;53.642;9.956;2023-06-26T10:22:38;17.38;;;15.60;;
13698;SDS011;6921;53.642;9.956;2023-06-26T10:24:45;18.73;;;16.83;;
13698;SDS011;6921;53.642;9.956;2023-06-26T10:26:52;19.52;;;17.23;;
13698;SDS011;6921;53.642;9.956;2023-06-26T10:29:25;20.77;;;18.67;;
13698;SDS011;6921;53.642;9.956;2023-06-26T10:31:29;23.40;;;19.40;;
13698;SDS011;6921;53.642;9.956;2023-06-26T10:33:34;21.10;;;18.83;;
13698;SDS011;6921;53.642;9.956;2023-06-26T10:35:42;20.73;;;18.45;;
13698;SDS011;6921;53.642;9.956;2023-06-26T10:37:46;20.95;;;18.45;;
13698;SDS011;6921;53.642;9.956;2023-06-26T10:39:51;20.33;;;18.17;;
13698;SDS011;6921;53.642;9.956;2023-06-26T10:41:57;18.55;;;16.60;;
13698;SDS011;6921;53.642;9.956;2023-06-26T10:44:11;17.65;;;15.70;;
13698;SDS011;6921;53.642;9.956;2023-06-26T10:46:16;16.83;;;15.02;;
13698;SDS011;6921;53.642;9.956;2023-06-26T10:48:20;15.13;;;13.45;;
13698;SDS011;6921;53.642;9.956;2023-06-26T10:50:25;16.73;;;14.05;;
13698;SDS011;6921;53.642;9.956;2023-06-26T10:52:29;15.70;;;14.10;;
13698;SDS011;6921;53.642;9.956;2023-06-26T10:54:33;16.50;;;14.57;;
13698;SDS011;6921;53.642;9.956;2023-06-26T10:56:41;15.20;;;13.60;;
13698;SDS011;6921;53.642;9.956;2023-06-26T10:58:47;15.77;;;14.18;;
13698;SDS011;6921;53.642;9.956;2023-06-26T11:00:50;16.92;;;15.05;;
13698;SDS011;6921;53.642;9.956;2023-06-26T11:02:55;19.67;;;14.52;;
13698;SDS011;6921;53.642;9.956;2023-06-26T11:04:59;16.80;;;15.13;;
13698;SDS011;6921;53.642;9.956;2023-06-26T11:07:15;19.48;;;15.02;;
13698;SDS011;6921;53.642;9.956;2023-06-26T11:09:23;18.35;;;14.13;;
13698;SDS011;6921;53.642;9.956;2023-06-26T11:14:07;13.45;;;11.27;;
13698;SDS011;6921;53.642;9.956;2023-06-26T11:16:11;15.43;;;10.90;;
13698;SDS011;6921;53.642;9.956;2023-06-26T11:18:17;11.13;;;9.43;;
13698;SDS011;6921;53.642;9.956;2023-06-26T11:20:20;13.85;;;9.73;;
13698;SDS011;6921;53.642;9.956;2023-06-26T11:22:24;11.48;;;8.15;;
13698;SDS011;6921;53.642;9.956;2023-06-26T11:24:29;12.40;;;7.70;;
13698;SDS011;6921;53.642;9.956;2023-06-26T11:26:37;10.57;;;7.70;;
13698;SDS011;6921;53.642;9.956;2023-06-26T11:28:45;13.45;;;7.38;;
13698;SDS011;6921;53.642;9.956;2023-06-26T11:30:49;12.63;;;7.70;;
13698;SDS011;6921;53.642;9.956;2023-06-26T11:33:02;12.32;;;7.90;;
13698;SDS011;6921;53.642;9.956;2023-06-26T11:35:10;12.00;;;7.75;;
13698;SDS011;6921;53.642;9.956;2023-06-26T11:37:16;10.57;;;6.60;;
13698;SDS011;6921;53.642;9.956;2023-06-26T11:39:19;9.38;;;6.40;;
13698;SDS011;6921;53.642;9.956;2023-06-26T11:41:23;11.57;;;5.90;;
13698;SDS011;6921;53.642;9.956;2023-06-26T11:43:28;9.27;;;5.00;;
13698;SDS011;6921;53.642;9.956;2023-06-26T11:45:32;10.55;;;4.80;;
13698;SDS011;6921;53.642;9.956;2023-06-26T11:47:35;9.20;;;4.65;;
13698;SDS011;6921;53.642;9.956;2023-06-26T11:49:42;10.55;;;4.15;;
13698;SDS011;6921;53.642;9.956;2023-06-26T11:51:47;11.73;;;4.03;;
13698;SDS011;6921;53.642;9.956;2023-06-26T11:53:50;7.72;;;3.33;;
13698;SDS011;6921;53.642;9.956;2023-06-26T11:55:54;8.60;;;3.28;;
13698;SDS011;6921;53.642;9.956;2023-06-26T11:57:58;6.78;;;2.95;;
13698;SDS011;6921;53.642;9.956;2023-06-26T12:00:10;6.22;;;2.42;;
13698;SDS011;6921;53.642;9.956;2023-06-26T12:02:14;8.25;;;2.40;;
13698;SDS011;6921;53.642;9.956;2023-06-26T12:04:18;10.85;;;2.95;;
13698;SDS011;6921;53.642;9.956;2023-06-26T12:06:22;9.77;;;2.90;;
13698;SDS011;6921;53.642;9.956;2023-06-26T12:08:27;8.15;;;2.80;;
13698;SDS011;6921;53.642;9.956;2023-06-26T12:10:30;8.77;;;2.90;;
13698;SDS011;6921;53.642;9.956;2023-06-26T12:12:34;7.68;;;2.95;;
13698;SDS011;6921;53.642;9.956;2023-06-26T12:14:37;7.90;;;2.80;;
13698;SDS011;6921;53.642;9.956;2023-06-26T12:16:43;10.05;;;3.30;;
13698;SDS011;6921;53.642;9.956;2023-06-26T12:18:46;9.25;;;3.30;;
13698;SDS011;6921;53.642;9.956;2023-06-26T12:20:50;7.15;;;2.92;;
13698;SDS011;6921;53.642;9.956;2023-06-26T12:22:53;7.80;;;3.10;;
13698;SDS011;6921;53.642;9.956;2023-06-26T12:24:58;10.85;;;3.30;;
13698;SDS011;6921;53.642;9.956;2023-06-26T12:27:02;7.30;;;2.90;;
13698;SDS011;6921;53.642;9.956;2023-06-26T12:29:05;7.60;;;2.85;;
13698;SDS011;6921;53.642;9.956;2023-06-26T12:31:12;4.80;;;2.58;;
13698;SDS011;6921;53.642;9.956;2023-06-26T12:33:15;6.88;;;2.90;;
13698;SDS011;6921;53.642;9.956;2023-06-26T12:35:19;9.75;;;3.03;;
13698;SDS011;6921;53.642;9.956;2023-06-26T12:37:22;6.18;;;2.95;;
13698;SDS011;6921;53.642;9.956;2023-06-26T12:39:25;8.77;;;2.83;;
13698;SDS011;6921;53.642;9.956;2023-06-26T12:41:31;7.85;;;2.42;;
13698;SDS011;6921;53.642;9.956;2023-06-26T12:43:34;10.38;;;2.75;;
13698;SDS011;6921;53.642;9.956;2023-06-26T12:45:41;6.43;;;2.50;;
13698;SDS011;6921;53.642;9.956;2023-06-26T12:47:44;7.07;;;3.10;;
13698;SDS011;6921;53.642;9.956;2023-06-26T12:49:49;7.15;;;2.30;;
13698;SDS011;6921;53.642;9.956;2023-06-26T12:51:53;6.38;;;2.53;;
13698;SDS011;6921;53.642;9.956;2023-06-26T12:53:56;6.05;;;2.28;;
13698;SDS011;6921;53.642;9.956;2023-06-26T12:56:00;5.00;;;2.58;;
13698;SDS011;6921;53.642;9.956;2023-06-26T12:58:06;6.03;;;2.40;;
13698;SDS011;6921;53.642;9.956;2023-06-26T13:00:13;4.43;;;2.20;;
13698;SDS011;6921;53.642;9.956;2023-06-26T13:02:17;6.50;;;2.40;;
13698;SDS011;6921;53.642;9.956;2023-06-26T13:04:24;4.85;;;2.13;;
13698;SDS011;6921;53.642;9.956;2023-06-26T13:06:27;7.40;;;2.40;;
13698;SDS011;6921;53.642;9.956;2023-06-26T13:08:31;6.55;;;2.72;;
13698;SDS011;6921;53.642;9.956;2023-06-26T13:10:34;5.35;;;2.42;;
13698;SDS011;6921;53.642;9.956;2023-06-26T13:12:38;5.38;;;2.20;;
13698;SDS011;6921;53.642;9.956;2023-06-26T13:14:43;5.20;;;2.33;;
13698;SDS011;6921;53.642;9.956;2023-06-26T13:16:50;7.03;;;2.55;;